sensor_id;sensor_type;location;lat;lon;timestamp;P1;durP1;ratioP1;P2;durP2;ratioP2
35245;SDS011;21379;50.962;6.960;2023-08-30T00:02:12;26.45;;;15.70;;
35245;SDS011;21379;50.962;6.960;2023-08-30T00:04:39;24.42;;;17.27;;
35245;SDS011;21379;50.962;6.960;2023-08-30T00:07:05;29.23;;;17.98;;
35245;SDS011;21379;50.962;6.960;2023-08-30T00:09:32;22.92;;;15.93;;
35245;SDS011;21379;50.962;6.960;2023-08-30T00:12:01;24.13;;;16.35;;
35245;SDS011;21379;50.962;6.960;2023-08-30T00:14:29;24.38;;;16.70;;
35245;SDS011;21379;50.962;6.960;2023-08-30T00:16:56;25.20;;;16.23;;
35245;SDS011;21379;50.962;6.960;2023-08-30T00:19:23;22.42;;;16.42;;
35245;SDS011;21379;50.962;6.960;2023-08-30T00:21:50;22.33;;;16.25;;
35245;SDS011;21379;50.962;6.960;2023-08-30T00:24:16;22.67;;;15.30;;
35245;SDS011;21379;50.962;6.960;2023-08-30T00:26:43;24.42;;;16.20;;
35245;SDS011;21379;50.962;6.960;2023-08-30T00:29:10;24.38;;;16.38;;
35245;SDS011;21379;50.962;6.960;2023-08-30T00:31:38;23.08;;;15.30;;
35245;SDS011;21379;50.962;6.960;2023-08-30T00:34:05;21.95;;;14.75;;
35245;SDS011;21379;50.962;6.960;2023-08-30T00:36:32;19.75;;;14.80;;
35245;SDS011;21379;50.962;6.960;2023-08-30T00:38:58;21.75;;;14.90;;
35245;SDS011;21379;50.962;6.960;2023-08-30T00:41:25;22.08;;;15.30;;
35245;SDS011;21379;50.962;6.960;2023-08-30T00:43:52;25.20;;;15.13;;
35245;SDS011;21379;50.962;6.960;2023-08-30T00:46:18;19.33;;;14.05;;
35245;SDS011;21379;50.962;6.960;2023-08-30T00:48:47;20.80;;;16.08;;
35245;SDS011;21379;50.962;6.960;2023-08-30T00:51:14;23.38;;;16.52;;
35245;SDS011;21379;50.962;6.960;2023-08-30T00:53:40;18.90;;;13.90;;
35245;SDS011;21379;50.962;6.960;2023-08-30T00:56:07;20.02;;;14.35;;
35245;SDS011;21379;50.962;6.960;2023-08-30T00:58:34;21.38;;;15.00;;
35245;SDS011;21379;50.962;6.960;2023-08-30T01:01:00;21.52;;;14.43;;
35245;SDS011;21379;50.962;6.960;2023-08-30T01:03:34;22.52;;;15.77;;
35245;SDS011;21379;50.962;6.960;2023-08-30T01:06:04;23.10;;;15.02;;
35245;SDS011;21379;50.962;6.960;2023-08-30T01:08:31;21.65;;;14.88;;
35245;SDS011;21379;50.962;6.960;2023-08-30T01:10:59;21.42;;;14.73;;
35245;SDS011;21379;50.962;6.960;2023-08-30T01:13:30;19.42;;;14.05;;
35245;SDS011;21379;50.962;6.960;2023-08-30T01:15:57;19.88;;;14.25;;
35245;SDS011;21379;50.962;6.960;2023-08-30T01:18:25;21.30;;;14.18;;
35245;SDS011;21379;50.962;6.960;2023-08-30T01:20:53;21.05;;;12.70;;
35245;SDS011;21379;50.962;6.960;2023-08-30T01:23:25;17.98;;;13.02;;
35245;SDS011;21379;50.962;6.960;2023-08-30T01:25:57;17.70;;;12.45;;
35245;SDS011;21379;50.962;6.960;2023-08-30T01:28:32;19.27;;;13.65;;
35245;SDS011;21379;50.962;6.960;2023-08-30T01:30:59;19.83;;;14.10;;
35245;SDS011;21379;50.962;6.960;2023-08-30T01:33:26;20.80;;;13.40;;
35245;SDS011;21379;50.962;6.960;2023-08-30T01:35:55;19.58;;;14.25;;
35245;SDS011;21379;50.962;6.960;2023-08-30T01:38:25;16.17;;;12.25;;
35245;SDS011;21379;50.962;6.960;2023-08-30T01:40:54;19.88;;;12.77;;
35245;SDS011;21379;50.962;6.960;2023-08-30T01:43:22;18.02;;;11.95;;
35245;SDS011;21379;50.962;6.960;2023-08-30T01:45:51;21.27;;;12.10;;
35245;SDS011;21379;50.962;6.960;2023-08-30T01:48:19;15.00;;;11.13;;
35245;SDS011;21379;50.962;6.960;2023-08-30T01:50:46;16.70;;;11.90;;
35245;SDS011;21379;50.962;6.960;2023-08-30T01:53:14;15.80;;;11.85;;
35245;SDS011;21379;50.962;6.960;2023-08-30T01:55:42;17.77;;;11.90;;
35245;SDS011;21379;50.962;6.960;2023-08-30T01:58:09;16.02;;;12.20;;
35245;SDS011;21379;50.962;6.960;2023-08-30T02:00:35;16.42;;;12.68;;
35245;SDS011;21379;50.962;6.960;2023-08-30T02:03:08;14.77;;;10.93;;
35245;SDS011;21379;50.962;6.960;2023-08-30T02:05:35;16.02;;;11.23;;
35245;SDS011;21379;50.962;6.960;2023-08-30T02:10:31;12.38;;;9.90;;
35245;SDS011;21379;50.962;6.960;2023-08-30T02:13:01;15.52;;;10.93;;
35245;SDS011;21379;50.962;6.960;2023-08-30T02:15:30;14.43;;;10.40;;
35245;SDS011;21379;50.962;6.960;2023-08-30T02:17:58;16.42;;;10.70;;
35245;SDS011;21379;50.962;6.960;2023-08-30T02:20:26;15.95;;;11.52;;
35245;SDS011;21379;50.962;6.960;2023-08-30T02:22:54;18.27;;;10.73;;
35245;SDS011;21379;50.962;6.960;2023-08-30T02:25:24;15.60;;;10.27;;
35245;SDS011;21379;50.962;6.960;2023-08-30T02:27:50;14.80;;;10.82;;
35245;SDS011;21379;50.962;6.960;2023-08-30T02:30:17;15.25;;;11.05;;
35245;SDS011;21379;50.962;6.960;2023-08-30T02:32:45;15.98;;;10.88;;
35245;SDS011;21379;50.962;6.960;2023-08-30T02:35:11;21.05;;;10.63;;
35245;SDS011;21379;50.962;6.960;2023-08-30T02:37:39;15.52;;;10.88;;
35245;SDS011;21379;50.962;6.960;2023-08-30T02:40:07;16.00;;;10.63;;
35245;SDS011;21379;50.962;6.960;2023-08-30T02:42:37;14.40;;;10.95;;
35245;SDS011;21379;50.962;6.960;2023-08-30T02:45:04;14.95;;;11.40;;
35245;SDS011;21379;50.962;6.960;2023-08-30T02:47:31;15.98;;;10.50;;
35245;SDS011;21379;50.962;6.960;2023-08-30T02:49:59;16.25;;;10.90;;
35245;SDS011;21379;50.962;6.960;2023-08-30T02:52:26;16.45;;;10.70;;
35245;SDS011;21379;50.962;6.960;2023-08-30T02:54:54;19.95;;;11.93;;
35245;SDS011;21379;50.962;6.960;2023-08-30T02:57:20;14.43;;;10.90;;
35245;SDS011;21379;50.962;6.960;2023-08-30T02:59:49;15.82;;;11.45;;
35245;SDS011;21379;50.962;6.960;2023-08-30T03:02:17;14.93;;;11.43;;
35245;SDS011;21379;50.962;6.960;2023-08-30T03:04:43;14.40;;;10.95;;
35245;SDS011;21379;50.962;6.960;2023-08-30T03:07:10;20.92;;;12.40;;
35245;SDS011;21379;50.962;6.960;2023-08-30T03:09:37;16.45;;;12.68;;
35245;SDS011;21379;50.962;6.960;2023-08-30T03:12:05;15.45;;;11.13;;
35245;SDS011;21379;50.962;6.960;2023-08-30T03:14:34;16.27;;;11.82;;
35245;SDS011;21379;50.962;6.960;2023-08-30T03:17:01;16.80;;;11.13;;
35245;SDS011;21379;50.962;6.960;2023-08-30T03:19:27;16.83;;;10.85;;
35245;SDS011;21379;50.962;6.960;2023-08-30T03:21:54;16.88;;;10.85;;
35245;SDS011;21379;50.962;6.960;2023-08-30T03:24:21;20.23;;;11.65;;
35245;SDS011;21379;50.962;6.960;2023-08-30T03:26:47;19.73;;;12.15;;
35245;SDS011;21379;50.962;6.960;2023-08-30T03:29:19;17.25;;;12.63;;
35245;SDS011;21379;50.962;6.960;2023-08-30T03:31:46;19.25;;;12.73;;
35245;SDS011;21379;50.962;6.960;2023-08-30T03:34:13;16.70;;;12.00;;
35245;SDS011;21379;50.962;6.960;2023-08-30T03:36:40;15.55;;;11.77;;
35245;SDS011;21379;50.962;6.960;2023-08-30T03:39:09;20.23;;;11.57;;
35245;SDS011;21379;50.962;6.960;2023-08-30T03:41:35;16.42;;;12.63;;
35245;SDS011;21379;50.962;6.960;2023-08-30T03:44:03;18.42;;;12.02;;
35245;SDS011;21379;50.962;6.960;2023-08-30T03:46:31;17.33;;;11.43;;
35245;SDS011;21379;50.962;6.960;2023-08-30T03:48:58;15.63;;;11.95;;
35245;SDS011;21379;50.962;6.960;2023-08-30T03:51:25;17.35;;;12.57;;
35245;SDS011;21379;50.962;6.960;2023-08-30T03:53:51;17.98;;;12.82;;
35245;SDS011;21379;50.962;6.960;2023-08-30T03:56:19;17.48;;;12.30;;
35245;SDS011;21379;50.962;6.960;2023-08-30T03:58:45;20.77;;;13.48;;
35245;SDS011;21379;50.962;6.960;2023-08-30T04:01:12;20.27;;;12.13;;
35245;SDS011;21379;50.962;6.960;2023-08-30T04:03:40;22.55;;;13.27;;
35245;SDS011;21379;50.962;6.960;2023-08-30T04:06:07;18.63;;;12.63;;
35245;SDS011;21379;50.962;6.960;2023-08-30T04:08:34;19.00;;;12.75;;
35245;SDS011;21379;50.962;6.960;2023-08-30T04:11:01;20.92;;;13.68;;
35245;SDS011;21379;50.962;6.960;2023-08-30T04:13:29;18.23;;;13.02;;
35245;SDS011;21379;50.962;6.960;2023-08-30T04:15:55;19.35;;;13.57;;
35245;SDS011;21379;50.962;6.960;2023-08-30T04:18:23;17.63;;;12.75;;
35245;SDS011;21379;50.962;6.960;2023-08-30T04:20:53;20.58;;;13.82;;
35245;SDS011;21379;50.962;6.960;2023-08-30T04:23:20;21.13;;;14.70;;
35245;SDS011;21379;50.962;6.960;2023-08-30T04:25:48;22.52;;;14.57;;
35245;SDS011;21379;50.962;6.960;2023-08-30T04:28:15;19.60;;;12.52;;
35245;SDS011;21379;50.962;6.960;2023-08-30T04:30:43;20.02;;;12.77;;
35245;SDS011;21379;50.962;6.960;2023-08-30T04:33:10;19.35;;;13.20;;
35245;SDS011;21379;50.962;6.960;2023-08-30T04:35:38;18.88;;;12.55;;
35245;SDS011;21379;50.962;6.960;2023-08-30T04:38:06;16.88;;;11.70;;
35245;SDS011;21379;50.962;6.960;2023-08-30T04:40:33;20.35;;;12.30;;
35245;SDS011;21379;50.962;6.960;2023-08-30T04:43:01;20.92;;;12.82;;
35245;SDS011;21379;50.962;6.960;2023-08-30T04:45:27;16.67;;;12.38;;
35245;SDS011;21379;50.962;6.960;2023-08-30T04:47:55;18.73;;;12.38;;
35245;SDS011;21379;50.962;6.960;2023-08-30T04:50:23;19.77;;;12.13;;
35245;SDS011;21379;50.962;6.960;2023-08-30T04:52:50;17.58;;;12.73;;
35245;SDS011;21379;50.962;6.960;2023-08-30T04:55:18;20.70;;;13.52;;
35245;SDS011;21379;50.962;6.960;2023-08-30T04:57:46;19.95;;;13.15;;
35245;SDS011;21379;50.962;6.960;2023-08-30T05:00:15;22.77;;;13.32;;
35245;SDS011;21379;50.962;6.960;2023-08-30T05:02:42;20.17;;;12.23;;
35245;SDS011;21379;50.962;6.960;2023-08-30T05:05:11;20.80;;;12.90;;
35245;SDS011;21379;50.962;6.960;2023-08-30T05:07:38;17.63;;;13.27;;
35245;SDS011;21379;50.962;6.960;2023-08-30T05:10:06;17.23;;;11.93;;
35245;SDS011;21379;50.962;6.960;2023-08-30T05:12:35;20.67;;;12.73;;
35245;SDS011;21379;50.962;6.960;2023-08-30T05:15:04;17.48;;;12.63;;
35245;SDS011;21379;50.962;6.960;2023-08-30T05:17:31;17.52;;;12.50;;
35245;SDS011;21379;50.962;6.960;2023-08-30T05:19:59;17.30;;;12.18;;
35245;SDS011;21379;50.962;6.960;2023-08-30T05:22:25;18.48;;;11.93;;
35245;SDS011;21379;50.962;6.960;2023-08-30T05:24:52;18.38;;;11.63;;
35245;SDS011;21379;50.962;6.960;2023-08-30T05:27:19;17.17;;;11.10;;
35245;SDS011;21379;50.962;6.960;2023-08-30T05:29:48;20.88;;;12.95;;
35245;SDS011;21379;50.962;6.960;2023-08-30T05:32:15;21.48;;;13.07;;
35245;SDS011;21379;50.962;6.960;2023-08-30T05:35:00;21.05;;;12.90;;
35245;SDS011;21379;50.962;6.960;2023-08-30T05:37:45;18.15;;;13.20;;
35245;SDS011;21379;50.962;6.960;2023-08-30T05:40:27;17.85;;;11.75;;
35245;SDS011;21379;50.962;6.960;2023-08-30T05:42:55;22.15;;;11.73;;
35245;SDS011;21379;50.962;6.960;2023-08-30T05:45:23;19.73;;;13.23;;
35245;SDS011;21379;50.962;6.960;2023-08-30T05:47:50;21.52;;;12.23;;
35245;SDS011;21379;50.962;6.960;2023-08-30T05:50:16;18.23;;;12.43;;
35245;SDS011;21379;50.962;6.960;2023-08-30T05:52:43;24.08;;;12.43;;
35245;SDS011;21379;50.962;6.960;2023-08-30T05:55:10;18.90;;;11.52;;
35245;SDS011;21379;50.962;6.960;2023-08-30T05:57:37;18.48;;;11.93;;
35245;SDS011;21379;50.962;6.960;2023-08-30T06:00:04;19.73;;;11.15;;
35245;SDS011;21379;50.962;6.960;2023-08-30T06:02:40;20.52;;;11.10;;
35245;SDS011;21379;50.962;6.960;2023-08-30T06:05:07;18.95;;;11.55;;
35245;SDS011;21379;50.962;6.960;2023-08-30T06:10:01;16.85;;;11.00;;
35245;SDS011;21379;50.962;6.960;2023-08-30T06:12:28;16.67;;;9.82;;
35245;SDS011;21379;50.962;6.960;2023-08-30T06:14:54;15.50;;;10.10;;
35245;SDS011;21379;50.962;6.960;2023-08-30T06:17:21;16.85;;;10.43;;
35245;SDS011;21379;50.962;6.960;2023-08-30T06:19:50;16.50;;;10.07;;
35245;SDS011;21379;50.962;6.960;2023-08-30T06:22:17;15.07;;;9.57;;
35245;SDS011;21379;50.962;6.960;2023-08-30T06:24:43;13.38;;;9.82;;
35245;SDS011;21379;50.962;6.960;2023-08-30T06:27:10;14.48;;;10.05;;
35245;SDS011;21379;50.962;6.960;2023-08-30T06:29:36;12.60;;;9.52;;
35245;SDS011;21379;50.962;6.960;2023-08-30T06:32:04;14.88;;;10.05;;
35245;SDS011;21379;50.962;6.960;2023-08-30T06:34:31;13.73;;;9.63;;
35245;SDS011;21379;50.962;6.960;2023-08-30T06:36:59;13.82;;;9.57;;
35245;SDS011;21379;50.962;6.960;2023-08-30T06:39:25;12.95;;;9.20;;
35245;SDS011;21379;50.962;6.960;2023-08-30T06:41:58;13.13;;;9.25;;
35245;SDS011;21379;50.962;6.960;2023-08-30T06:44:26;14.07;;;9.27;;
35245;SDS011;21379;50.962;6.960;2023-08-30T06:46:53;14.02;;;8.43;;
35245;SDS011;21379;50.962;6.960;2023-08-30T06:49:20;13.73;;;8.07;;
35245;SDS011;21379;50.962;6.960;2023-08-30T06:51:47;12.35;;;8.63;;
35245;SDS011;21379;50.962;6.960;2023-08-30T06:54:15;12.65;;;8.15;;
35245;SDS011;21379;50.962;6.960;2023-08-30T06:56:45;13.45;;;8.23;;
35245;SDS011;21379;50.962;6.960;2023-08-30T06:59:22;10.32;;;7.50;;
35245;SDS011;21379;50.962;6.960;2023-08-30T07:01:49;20.05;;;8.43;;
35245;SDS011;21379;50.962;6.960;2023-08-30T07:04:15;10.65;;;7.45;;
35245;SDS011;21379;50.962;6.960;2023-08-30T07:06:42;12.68;;;7.47;;
35245;SDS011;21379;50.962;6.960;2023-08-30T07:09:09;12.25;;;7.20;;
35245;SDS011;21379;50.962;6.960;2023-08-30T07:11:37;12.13;;;7.60;;
35245;SDS011;21379;50.962;6.960;2023-08-30T07:14:04;10.30;;;7.18;;
35245;SDS011;21379;50.962;6.960;2023-08-30T07:16:31;10.20;;;7.03;;
35245;SDS011;21379;50.962;6.960;2023-08-30T07:18:58;12.20;;;6.75;;
35245;SDS011;21379;50.962;6.960;2023-08-30T07:21:25;11.90;;;6.43;;
35245;SDS011;21379;50.962;6.960;2023-08-30T07:23:52;8.48;;;6.78;;
35245;SDS011;21379;50.962;6.960;2023-08-30T07:26:18;10.05;;;6.63;;
35245;SDS011;21379;50.962;6.960;2023-08-30T07:28:46;9.68;;;6.85;;
35245;SDS011;21379;50.962;6.960;2023-08-30T07:31:13;8.20;;;6.10;;
35245;SDS011;21379;50.962;6.960;2023-08-30T07:33:43;10.40;;;6.22;;
35245;SDS011;21379;50.962;6.960;2023-08-30T07:36:10;10.52;;;6.45;;
35245;SDS011;21379;50.962;6.960;2023-08-30T07:38:37;9.10;;;5.80;;
35245;SDS011;21379;50.962;6.960;2023-08-30T07:41:04;7.13;;;5.22;;
35245;SDS011;21379;50.962;6.960;2023-08-30T07:43:31;7.40;;;5.32;;
35245;SDS011;21379;50.962;6.960;2023-08-30T07:45:59;6.78;;;5.47;;
35245;SDS011;21379;50.962;6.960;2023-08-30T07:48:25;8.45;;;5.65;;
35245;SDS011;21379;50.962;6.960;2023-08-30T07:50:52;11.38;;;5.40;;
35245;SDS011;21379;50.962;6.960;2023-08-30T07:53:19;8.65;;;5.70;;
35245;SDS011;21379;50.962;6.960;2023-08-30T07:55:47;8.98;;;5.85;;
35245;SDS011;21379;50.962;6.960;2023-08-30T07:58:14;8.57;;;5.38;;
35245;SDS011;21379;50.962;6.960;2023-08-30T08:00:41;8.43;;;5.20;;
35245;SDS011;21379;50.962;6.960;2023-08-30T08:03:09;6.63;;;4.50;;
35245;SDS011;21379;50.962;6.960;2023-08-30T08:05:36;8.52;;;4.32;;
35245;SDS011;21379;50.962;6.960;2023-08-30T08:08:03;6.40;;;4.03;;
35245;SDS011;21379;50.962;6.960;2023-08-30T08:10:31;6.22;;;3.70;;
35245;SDS011;21379;50.962;6.960;2023-08-30T08:12:58;7.85;;;3.95;;
35245;SDS011;21379;50.962;6.960;2023-08-30T08:15:25;7.22;;;3.92;;
35245;SDS011;21379;50.962;6.960;2023-08-30T08:17:51;8.48;;;3.55;;
35245;SDS011;21379;50.962;6.960;2023-08-30T08:20:20;8.32;;;3.90;;
35245;SDS011;21379;50.962;6.960;2023-08-30T08:22:46;8.32;;;4.05;;
35245;SDS011;21379;50.962;6.960;2023-08-30T08:25:13;7.25;;;4.13;;
35245;SDS011;21379;50.962;6.960;2023-08-30T08:27:41;8.43;;;3.67;;
35245;SDS011;21379;50.962;6.960;2023-08-30T08:30:08;6.45;;;3.50;;
35245;SDS011;21379;50.962;6.960;2023-08-30T08:32:36;8.38;;;3.55;;
35245;SDS011;21379;50.962;6.960;2023-08-30T08:35:03;6.68;;;3.20;;
35245;SDS011;21379;50.962;6.960;2023-08-30T08:37:31;8.50;;;3.30;;
35245;SDS011;21379;50.962;6.960;2023-08-30T08:39:58;7.53;;;3.28;;
35245;SDS011;21379;50.962;6.960;2023-08-30T08:42:25;5.38;;;2.80;;
35245;SDS011;21379;50.962;6.960;2023-08-30T08:44:53;6.45;;;2.67;;
35245;SDS011;21379;50.962;6.960;2023-08-30T08:47:20;8.43;;;3.08;;
35245;SDS011;21379;50.962;6.960;2023-08-30T08:49:47;5.40;;;3.00;;
35245;SDS011;21379;50.962;6.960;2023-08-30T08:52:14;5.50;;;3.03;;
35245;SDS011;21379;50.962;6.960;2023-08-30T08:54:43;6.15;;;2.80;;
35245;SDS011;21379;50.962;6.960;2023-08-30T08:57:09;5.10;;;2.45;;
35245;SDS011;21379;50.962;6.960;2023-08-30T08:59:36;5.28;;;2.80;;
35245;SDS011;21379;50.962;6.960;2023-08-30T09:02:03;3.40;;;2.15;;
35245;SDS011;21379;50.962;6.960;2023-08-30T09:04:30;3.22;;;2.35;;
35245;SDS011;21379;50.962;6.960;2023-08-30T09:06:58;5.65;;;2.83;;
35245;SDS011;21379;50.962;6.960;2023-08-30T09:09:25;5.55;;;2.25;;
35245;SDS011;21379;50.962;6.960;2023-08-30T09:11:53;3.85;;;1.90;;
35245;SDS011;21379;50.962;6.960;2023-08-30T09:14:20;4.32;;;1.90;;
35245;SDS011;21379;50.962;6.960;2023-08-30T09:16:56;2.97;;;1.95;;
35245;SDS011;21379;50.962;6.960;2023-08-30T09:19:24;4.63;;;2.20;;
35245;SDS011;21379;50.962;6.960;2023-08-30T09:21:51;4.47;;;2.17;;
35245;SDS011;21379;50.962;6.960;2023-08-30T09:24:18;5.55;;;2.47;;
35245;SDS011;21379;50.962;6.960;2023-08-30T09:26:47;3.20;;;2.20;;
35245;SDS011;21379;50.962;6.960;2023-08-30T09:29:16;4.18;;;2.08;;
35245;SDS011;21379;50.962;6.960;2023-08-30T09:31:43;5.93;;;2.40;;
35245;SDS011;21379;50.962;6.960;2023-08-30T09:34:10;2.95;;;2.03;;
35245;SDS011;21379;50.962;6.960;2023-08-30T09:36:38;4.10;;;1.92;;
35245;SDS011;21379;50.962;6.960;2023-08-30T09:41:32;6.32;;;2.47;;
35245;SDS011;21379;50.962;6.960;2023-08-30T09:43:59;4.65;;;2.25;;
35245;SDS011;21379;50.962;6.960;2023-08-30T09:46:27;4.95;;;2.17;;
35245;SDS011;21379;50.962;6.960;2023-08-30T09:48:54;5.80;;;2.35;;
35245;SDS011;21379;50.962;6.960;2023-08-30T09:51:20;4.15;;;2.05;;
35245;SDS011;21379;50.962;6.960;2023-08-30T09:53:52;4.00;;;2.28;;
35245;SDS011;21379;50.962;6.960;2023-08-30T09:56:21;3.92;;;2.15;;
35245;SDS011;21379;50.962;6.960;2023-08-30T09:58:48;4.93;;;2.30;;
35245;SDS011;21379;50.962;6.960;2023-08-30T10:01:15;3.92;;;1.85;;
35245;SDS011;21379;50.962;6.960;2023-08-30T10:03:43;5.07;;;2.10;;
35245;SDS011;21379;50.962;6.960;2023-08-30T10:06:10;3.80;;;2.55;;
35245;SDS011;21379;50.962;6.960;2023-08-30T10:08:37;6.35;;;2.33;;
35245;SDS011;21379;50.962;6.960;2023-08-30T10:11:04;5.80;;;2.63;;
35245;SDS011;21379;50.962;6.960;2023-08-30T10:13:32;5.57;;;2.60;;
35245;SDS011;21379;50.962;6.960;2023-08-30T10:16:01;5.18;;;2.75;;
35245;SDS011;21379;50.962;6.960;2023-08-30T10:18:29;5.30;;;2.63;;
35245;SDS011;21379;50.962;6.960;2023-08-30T10:21:01;4.43;;;2.30;;
35245;SDS011;21379;50.962;6.960;2023-08-30T10:23:29;4.78;;;2.80;;
35245;SDS011;21379;50.962;6.960;2023-08-30T10:25:56;7.10;;;2.80;;
35245;SDS011;21379;50.962;6.960;2023-08-30T10:28:24;4.40;;;2.50;;
35245;SDS011;21379;50.962;6.960;2023-08-30T10:30:52;7.00;;;3.05;;
35245;SDS011;21379;50.962;6.960;2023-08-30T10:33:18;7.05;;;2.80;;
35245;SDS011;21379;50.962;6.960;2023-08-30T10:35:51;6.78;;;2.53;;
35245;SDS011;21379;50.962;6.960;2023-08-30T10:38:28;4.63;;;2.58;;
35245;SDS011;21379;50.962;6.960;2023-08-30T10:40:55;4.18;;;2.40;;
35245;SDS011;21379;50.962;6.960;2023-08-30T10:43:28;4.60;;;2.15;;
35245;SDS011;21379;50.962;6.960;2023-08-30T10:46:02;3.20;;;2.20;;
35245;SDS011;21379;50.962;6.960;2023-08-30T10:48:38;4.22;;;2.50;;
35245;SDS011;21379;50.962;6.960;2023-08-30T10:53:34;3.65;;;2.28;;
35245;SDS011;21379;50.962;6.960;2023-08-30T10:56:09;4.70;;;2.50;;
35245;SDS011;21379;50.962;6.960;2023-08-30T10:58:42;4.25;;;2.30;;
35245;SDS011;21379;50.962;6.960;2023-08-30T11:01:10;4.38;;;2.42;;
35245;SDS011;21379;50.962;6.960;2023-08-30T11:03:39;6.10;;;2.72;;
35245;SDS011;21379;50.962;6.960;2023-08-30T11:06:06;3.97;;;2.17;;
35245;SDS011;21379;50.962;6.960;2023-08-30T11:08:34;4.97;;;2.50;;
35245;SDS011;21379;50.962;6.960;2023-08-30T11:11:02;3.67;;;2.60;;
35245;SDS011;21379;50.962;6.960;2023-08-30T11:13:30;4.65;;;2.40;;
35245;SDS011;21379;50.962;6.960;2023-08-30T11:15:59;7.78;;;2.50;;
35245;SDS011;21379;50.962;6.960;2023-08-30T11:18:27;7.30;;;3.13;;
35245;SDS011;21379;50.962;6.960;2023-08-30T11:21:00;5.05;;;2.45;;
35245;SDS011;21379;50.962;6.960;2023-08-30T11:23:28;4.22;;;2.38;;
35245;SDS011;21379;50.962;6.960;2023-08-30T11:25:56;4.53;;;2.20;;
35245;SDS011;21379;50.962;6.960;2023-08-30T11:28:23;5.47;;;2.67;;
35245;SDS011;21379;50.962;6.960;2023-08-30T11:30:50;3.10;;;2.38;;
35245;SDS011;21379;50.962;6.960;2023-08-30T11:35:44;3.40;;;2.35;;
35245;SDS011;21379;50.962;6.960;2023-08-30T11:38:11;4.55;;;2.78;;
35245;SDS011;21379;50.962;6.960;2023-08-30T11:40:39;7.78;;;3.20;;
35245;SDS011;21379;50.962;6.960;2023-08-30T11:43:07;4.78;;;2.47;;
35245;SDS011;21379;50.962;6.960;2023-08-30T11:45:34;5.38;;;2.10;;
35245;SDS011;21379;50.962;6.960;2023-08-30T11:48:06;4.60;;;2.30;;
35245;SDS011;21379;50.962;6.960;2023-08-30T11:50:33;3.60;;;2.35;;
35245;SDS011;21379;50.962;6.960;2023-08-30T11:53:00;5.97;;;3.10;;
35245;SDS011;21379;50.962;6.960;2023-08-30T11:57:54;4.70;;;2.17;;
35245;SDS011;21379;50.962;6.960;2023-08-30T12:00:23;4.15;;;2.08;;
35245;SDS011;21379;50.962;6.960;2023-08-30T12:02:50;5.07;;;3.00;;
35245;SDS011;21379;50.962;6.960;2023-08-30T12:05:17;4.18;;;2.83;;
35245;SDS011;21379;50.962;6.960;2023-08-30T12:07:45;4.57;;;2.83;;
35245;SDS011;21379;50.962;6.960;2023-08-30T12:10:12;6.85;;;3.25;;
35245;SDS011;21379;50.962;6.960;2023-08-30T12:12:44;4.80;;;3.05;;
35245;SDS011;21379;50.962;6.960;2023-08-30T12:15:11;6.93;;;3.00;;
35245;SDS011;21379;50.962;6.960;2023-08-30T12:17:40;5.35;;;2.85;;
35245;SDS011;21379;50.962;6.960;2023-08-30T12:20:14;3.38;;;2.53;;
35245;SDS011;21379;50.962;6.960;2023-08-30T12:22:44;5.82;;;3.55;;
35245;SDS011;21379;50.962;6.960;2023-08-30T12:25:17;4.95;;;3.30;;
35245;SDS011;21379;50.962;6.960;2023-08-30T12:30:12;5.47;;;3.20;;
35245;SDS011;21379;50.962;6.960;2023-08-30T12:35:07;6.10;;;2.45;;
35245;SDS011;21379;50.962;6.960;2023-08-30T12:37:34;5.47;;;2.50;;
35245;SDS011;21379;50.962;6.960;2023-08-30T12:40:01;2.97;;;2.10;;
35245;SDS011;21379;50.962;6.960;2023-08-30T12:42:28;4.15;;;2.05;;
35245;SDS011;21379;50.962;6.960;2023-08-30T12:44:54;5.25;;;2.22;;
35245;SDS011;21379;50.962;6.960;2023-08-30T12:47:22;3.65;;;2.17;;
35245;SDS011;21379;50.962;6.960;2023-08-30T12:49:52;3.95;;;2.05;;
35245;SDS011;21379;50.962;6.960;2023-08-30T12:55:47;4.10;;;1.70;;
35245;SDS011;21379;50.962;6.960;2023-08-30T12:58:14;2.65;;;1.80;;
35245;SDS011;21379;50.962;6.960;2023-08-30T13:00:41;2.75;;;1.60;;
35245;SDS011;21379;50.962;6.960;2023-08-30T13:03:08;3.83;;;1.80;;
35245;SDS011;21379;50.962;6.960;2023-08-30T13:05:36;2.30;;;1.63;;
35245;SDS011;21379;50.962;6.960;2023-08-30T13:08:03;5.38;;;1.83;;
35245;SDS011;21379;50.962;6.960;2023-08-30T13:10:33;3.72;;;2.05;;
35245;SDS011;21379;50.962;6.960;2023-08-30T13:13:00;1.98;;;1.65;;
35245;SDS011;21379;50.962;6.960;2023-08-30T13:15:27;2.25;;;1.58;;
35245;SDS011;21379;50.962;6.960;2023-08-30T13:17:53;2.20;;;1.52;;
35245;SDS011;21379;50.962;6.960;2023-08-30T13:20:21;1.60;;;1.42;;
35245;SDS011;21379;50.962;6.960;2023-08-30T13:22:49;2.00;;;1.70;;
35245;SDS011;21379;50.962;6.960;2023-08-30T13:25:15;2.28;;;1.80;;
35245;SDS011;21379;50.962;6.960;2023-08-30T13:27:43;4.35;;;1.98;;
35245;SDS011;21379;50.962;6.960;2023-08-30T13:30:10;2.30;;;1.70;;
35245;SDS011;21379;50.962;6.960;2023-08-30T13:32:37;3.80;;;1.85;;
35245;SDS011;21379;50.962;6.960;2023-08-30T13:35:04;2.47;;;2.08;;
35245;SDS011;21379;50.962;6.960;2023-08-30T13:39:59;3.42;;;2.25;;
35245;SDS011;21379;50.962;6.960;2023-08-30T13:42:26;2.95;;;1.50;;
35245;SDS011;21379;50.962;6.960;2023-08-30T13:44:52;2.50;;;1.60;;
35245;SDS011;21379;50.962;6.960;2023-08-30T13:47:19;2.45;;;2.15;;
35245;SDS011;21379;50.962;6.960;2023-08-30T13:49:46;2.92;;;1.80;;
35245;SDS011;21379;50.962;6.960;2023-08-30T13:52:13;3.60;;;1.73;;
35245;SDS011;21379;50.962;6.960;2023-08-30T13:57:08;3.28;;;2.13;;
35245;SDS011;21379;50.962;6.960;2023-08-30T13:59:35;2.22;;;1.80;;
35245;SDS011;21379;50.962;6.960;2023-08-30T14:02:02;2.55;;;1.77;;
35245;SDS011;21379;50.962;6.960;2023-08-30T14:04:29;3.20;;;2.17;;
35245;SDS011;21379;50.962;6.960;2023-08-30T14:06:57;4.05;;;1.95;;
35245;SDS011;21379;50.962;6.960;2023-08-30T14:09:24;3.03;;;1.98;;
35245;SDS011;21379;50.962;6.960;2023-08-30T14:11:51;2.60;;;2.08;;
35245;SDS011;21379;50.962;6.960;2023-08-30T14:14:19;5.50;;;2.45;;
35245;SDS011;21379;50.962;6.960;2023-08-30T14:16:45;3.70;;;2.42;;
35245;SDS011;21379;50.962;6.960;2023-08-30T14:19:15;2.85;;;2.05;;
35245;SDS011;21379;50.962;6.960;2023-08-30T14:21:42;2.75;;;2.20;;
35245;SDS011;21379;50.962;6.960;2023-08-30T14:24:09;4.07;;;2.55;;
35245;SDS011;21379;50.962;6.960;2023-08-30T14:26:35;3.10;;;2.20;;
35245;SDS011;21379;50.962;6.960;2023-08-30T14:29:02;3.50;;;2.40;;
35245;SDS011;21379;50.962;6.960;2023-08-30T14:31:30;6.18;;;2.60;;
35245;SDS011;21379;50.962;6.960;2023-08-30T14:33:57;3.33;;;2.20;;
35245;SDS011;21379;50.962;6.960;2023-08-30T14:36:24;5.75;;;3.13;;
35245;SDS011;21379;50.962;6.960;2023-08-30T14:38:50;3.75;;;2.10;;
35245;SDS011;21379;50.962;6.960;2023-08-30T14:41:17;5.53;;;2.50;;
35245;SDS011;21379;50.962;6.960;2023-08-30T14:43:44;3.28;;;2.45;;
35245;SDS011;21379;50.962;6.960;2023-08-30T14:46:11;2.38;;;1.75;;
35245;SDS011;21379;50.962;6.960;2023-08-30T14:48:39;4.97;;;3.03;;
35245;SDS011;21379;50.962;6.960;2023-08-30T14:51:05;5.53;;;2.97;;
35245;SDS011;21379;50.962;6.960;2023-08-30T14:53:32;4.78;;;2.85;;
35245;SDS011;21379;50.962;6.960;2023-08-30T14:55:59;4.63;;;2.58;;
35245;SDS011;21379;50.962;6.960;2023-08-30T14:58:26;5.30;;;2.63;;
35245;SDS011;21379;50.962;6.960;2023-08-30T15:13:36;4.20;;;3.00;;
35245;SDS011;21379;50.962;6.960;2023-08-30T15:16:03;2.72;;;2.17;;
35245;SDS011;21379;50.962;6.960;2023-08-30T15:18:30;4.30;;;3.33;;
35245;SDS011;21379;50.962;6.960;2023-08-30T15:20:57;4.22;;;3.05;;